Time;durP1;ratioP1;P1;durP2;ratioP2;P2;SDS_P1;SDS_P2;PMS_P1;PMS_P2;Temp;Humidity;BMP_temperature;BMP_pressure;BME280_temperature;BME280_humidity;BME280_pressure;Samples;Min_cycle;Max_cycle;Signal;HPM_P1;HPM_P2
2023/04/10 00:02:27;;;;;;;43.50;30.73;;;8.00;99.90;;;;;;4920387;29;20243;-56
2023/04/10 00:04:55;;;;;;;45.03;32.03;;;8.00;99.90;;;;;;4927376;29;20260;-58
2023/04/10 00:07:23;;;;;;;46.27;33.00;;;8.00;99.90;;;;;;4930382;29;20724;-57
2023/04/10 00:09:52;;;;;;;40.73;29.90;;;8.00;99.90;;;;;;4938427;29;20257;-57
2023/04/10 00:12:21;;;;;;;42.27;30.60;;;8.00;99.90;;;;;;4938407;29;20229;-58
2023/04/10 00:14:49;;;;;;;42.07;30.90;;;8.10;99.90;;;;;;4929932;29;20240;-58
2023/04/10 00:17:17;;;;;;;42.07;30.63;;;8.20;99.90;;;;;;4937982;29;20238;-58
2023/04/10 00:19:45;;;;;;;42.07;29.90;;;8.20;99.90;;;;;;4937904;29;20260;-57
2023/04/10 00:22:14;;;;;;;38.00;26.83;;;8.10;99.90;;;;;;4937545;29;20245;-58
2023/04/10 00:24:42;;;;;;;43.57;31.53;;;8.10;99.90;;;;;;4937914;29;20234;-58
2023/04/10 00:27:10;;;;;;;43.23;31.37;;;8.20;99.90;;;;;;4937678;29;20694;-58
2023/04/10 00:29:40;;;;;;;44.10;31.67;;;8.10;99.90;;;;;;4952567;29;20239;-57
2023/04/10 00:32:08;;;;;;;42.47;30.60;;;8.00;99.90;;;;;;4937267;29;20232;-57
2023/04/10 00:34:36;;;;;;;46.20;31.77;;;8.00;99.90;;;;;;4929379;29;20232;-58
2023/04/10 00:37:05;;;;;;;42.43;28.70;;;8.00;99.90;;;;;;4926607;29;20237;-57
2023/04/10 00:39:33;;;;;;;39.80;28.03;;;8.00;99.90;;;;;;4919795;29;20805;-58
2023/04/10 00:42:01;;;;;;;39.13;28.10;;;8.00;99.90;;;;;;4937357;29;20228;-57
2023/04/10 00:44:29;;;;;;;39.13;27.27;;;8.00;99.90;;;;;;4929332;29;20236;-57
2023/04/10 00:46:59;;;;;;;39.83;27.93;;;7.90;99.90;;;;;;4937495;29;20232;-57
2023/04/10 00:49:27;;;;;;;42.10;27.90;;;8.00;99.90;;;;;;4937327;29;20232;-58
2023/04/10 00:51:55;;;;;;;37.87;26.60;;;8.00;99.90;;;;;;4937568;29;20221;-57
2023/04/10 00:54:26;;;;;;;38.97;26.37;;;8.00;99.90;;;;;;4937340;29;20232;-56
2023/04/10 00:56:56;;;;;;;35.43;25.67;;;7.90;99.90;;;;;;4936490;29;20304;-56
2023/04/10 00:59:24;;;;;;;36.23;25.73;;;8.00;99.90;;;;;;4937467;29;20217;-57
2023/04/10 01:01:52;;;;;;;33.47;25.50;;;8.00;99.90;;;;;;4956118;23;20243;-59
2023/04/10 01:04:25;;;;;;;37.83;26.80;;;7.90;99.90;;;;;;4913938;29;20764;-60
2023/04/10 01:06:59;;;;;;;38.67;26.17;;;7.90;99.90;;;;;;4917459;29;20229;-58
2023/04/10 01:09:38;;;;;;;36.83;25.77;;;7.90;99.90;;;;;;4917535;29;20258;-59
2023/04/10 01:12:17;;;;;;;33.23;24.30;;;7.90;99.90;;;;;;4921606;29;20315;-60
2023/04/10 01:14:53;;;;;;;34.57;25.10;;;7.90;99.90;;;;;;4915862;29;20236;-57
2023/04/10 01:17:35;;;;;;;35.57;25.73;;;7.90;99.90;;;;;;4917483;29;20225;-59
2023/04/10 01:20:11;;;;;;;38.97;26.87;;;7.80;99.90;;;;;;4917410;29;20225;-59
2023/04/10 01:22:52;;;;;;;37.27;25.13;;;7.80;99.90;;;;;;4917149;29;20239;-59
2023/04/10 01:25:38;;;;;;;40.23;26.07;;;7.80;99.90;;;;;;4917394;29;20688;-59
2023/04/10 01:28:44;;;;;;;36.17;26.00;;;7.80;99.90;;;;;;4917519;29;20237;-59
2023/04/10 01:31:19;;;;;;;35.93;25.63;;;7.80;99.90;;;;;;4906737;29;20244;-59
2023/04/10 01:33:51;;;;;;;36.37;25.77;;;7.80;99.90;;;;;;4907779;29;20260;-59
2023/04/10 01:36:25;;;;;;;36.77;24.77;;;7.80;99.90;;;;;;4917046;29;20738;-59
2023/04/10 01:38:54;;;;;;;36.40;26.40;;;7.80;99.90;;;;;;4917089;29;20697;-60
2023/04/10 01:41:23;;;;;;;35.23;24.30;;;7.80;99.90;;;;;;4916719;29;20248;-58
2023/04/10 01:43:54;;;;;;;35.33;25.10;;;7.80;99.90;;;;;;4915374;29;20712;-59
2023/04/10 01:46:23;;;;;;;34.67;24.83;;;7.70;99.90;;;;;;4917007;29;20220;-60
2023/04/10 01:48:53;;;;;;;35.43;24.77;;;7.80;99.90;;;;;;4917014;29;20221;-59
2023/04/10 01:51:22;;;;;;;35.10;24.87;;;7.70;99.90;;;;;;4931502;29;20696;-59
2023/04/10 01:53:52;;;;;;;33.13;24.10;;;7.70;99.90;;;;;;4916844;29;20685;-59
2023/04/10 01:56:25;;;;;;;32.47;23.47;;;7.70;99.90;;;;;;4931429;29;20232;-58
2023/04/10 01:58:55;;;;;;;34.27;23.90;;;7.70;99.90;;;;;;4931384;29;20727;-59
2023/04/10 02:01:23;;;;;;;33.07;24.20;;;7.70;99.90;;;;;;4915130;29;20236;-59
2023/04/10 02:03:57;;;;;;;34.07;23.70;;;7.70;99.90;;;;;;4930863;29;20255;-58
2023/04/10 02:06:34;;;;;;;34.17;23.70;;;7.70;99.90;;;;;;4930955;29;20268;-58
2023/04/10 02:09:10;;;;;;;31.83;23.27;;;7.70;99.90;;;;;;4915299;29;20229;-59
2023/04/10 02:11:44;;;;;;;33.50;23.60;;;7.70;99.90;;;;;;4905299;29;20232;-59
2023/04/10 02:14:17;;;;;;;31.13;23.40;;;7.70;99.90;;;;;;4916513;29;20606;-59
2023/04/10 02:16:45;;;;;;;33.53;24.17;;;7.70;99.90;;;;;;4915204;29;20246;-59
2023/04/10 02:19:14;;;;;;;35.33;24.70;;;7.60;99.90;;;;;;4916818;29;20580;-59
2023/04/10 02:21:44;;;;;;;31.90;24.00;;;7.60;99.90;;;;;;4916597;29;20708;-59
2023/04/10 02:24:12;;;;;;;33.63;24.43;;;7.60;99.90;;;;;;4915295;29;20231;-59
2023/04/10 02:26:45;;;;;;;35.77;24.17;;;7.60;99.90;;;;;;4914918;29;20700;-59
2023/04/10 02:29:14;;;;;;;33.63;23.93;;;7.60;99.90;;;;;;4916712;29;20587;-59
2023/04/10 02:31:43;;;;;;;33.70;24.37;;;7.60;99.90;;;;;;4915885;29;20323;-59
2023/04/10 02:34:12;;;;;;;33.20;24.03;;;7.60;99.90;;;;;;4915110;29;20233;-60
2023/04/10 02:36:40;;;;;;;33.30;23.50;;;7.60;99.90;;;;;;4916322;29;20349;-60
2023/04/10 02:39:10;;;;;;;32.17;23.00;;;7.50;99.90;;;;;;4914966;29;20236;-59
2023/04/10 02:41:47;;;;;;;29.33;23.03;;;7.50;99.90;;;;;;4918746;29;20317;-59
2023/04/10 02:44:16;;;;;;;32.60;23.97;;;7.50;99.90;;;;;;4914907;29;20229;-59
2023/04/10 02:46:45;;;;;;;33.37;24.53;;;7.50;99.90;;;;;;4914937;29;20264;-59
2023/04/10 02:49:14;;;;;;;33.63;23.27;;;7.50;99.90;;;;;;4915070;29;20257;-60
2023/04/10 02:51:42;;;;;;;31.70;23.20;;;7.50;99.90;;;;;;4916195;29;20739;-59
2023/04/10 02:54:10;;;;;;;31.77;23.23;;;7.40;99.90;;;;;;4914975;29;20323;-58
2023/04/10 02:56:40;;;;;;;31.67;23.10;;;7.50;99.90;;;;;;4915031;29;20233;-59
2023/04/10 02:59:08;;;;;;;32.50;23.43;;;7.50;99.90;;;;;;4914955;29;20331;-59
2023/04/10 03:01:39;;;;;;;31.37;23.57;;;7.50;99.90;;;;;;4914255;29;20237;-58
2023/04/10 03:04:07;;;;;;;32.13;22.67;;;7.50;99.90;;;;;;4908969;29;20263;-59
2023/04/10 03:06:39;;;;;;;31.30;23.23;;;7.40;99.90;;;;;;4915803;29;20696;-59
2023/04/10 03:09:07;;;;;;;32.30;22.87;;;7.40;99.90;;;;;;4914897;29;20229;-59
2023/04/10 03:11:35;;;;;;;32.53;23.50;;;7.40;99.90;;;;;;4914750;29;20264;-59
2023/04/10 03:14:04;;;;;;;34.57;24.50;;;7.40;99.90;;;;;;4908275;29;20263;-59
2023/04/10 03:16:32;;;;;;;33.77;23.67;;;7.40;99.90;;;;;;4915950;29;20584;-59
2023/04/10 03:19:04;;;;;;;31.53;22.87;;;7.40;99.90;;;;;;4916459;29;20236;-58
2023/04/10 03:21:32;;;;;;;32.97;22.23;;;7.30;99.90;;;;;;4919439;29;20229;-59
2023/04/10 03:24:01;;;;;;;35.30;24.43;;;7.30;99.90;;;;;;4919451;29;20224;-59
2023/04/10 03:26:29;;;;;;;33.43;24.03;;;7.30;99.90;;;;;;4918072;29;20746;-60
2023/04/10 03:28:57;;;;;;;32.73;23.73;;;7.30;99.90;;;;;;4919473;29;20224;-60
2023/04/10 03:31:25;;;;;;;31.60;23.33;;;7.30;99.90;;;;;;4918885;29;20239;-58
2023/04/10 03:33:57;;;;;;;34.23;23.63;;;7.30;99.90;;;;;;4919150;29;20310;-59
2023/04/10 03:36:27;;;;;;;33.30;23.63;;;7.30;99.90;;;;;;4919086;29;20271;-59
2023/04/10 03:38:55;;;;;;;32.67;22.10;;;7.30;99.90;;;;;;4919316;29;20648;-59
2023/04/10 03:41:24;;;;;;;30.80;22.93;;;7.30;99.90;;;;;;4918815;29;20228;-59
2023/04/10 03:43:52;;;;;;;30.83;22.60;;;7.30;99.90;;;;;;4917684;29;20297;-59
2023/04/10 03:46:21;;;;;;;33.20;24.17;;;7.30;99.90;;;;;;4917910;29;20276;-59
2023/04/10 03:48:52;;;;;;;32.93;23.17;;;7.20;99.90;;;;;;4919019;29;20647;-59
2023/04/10 03:51:22;;;;;;;30.77;22.63;;;7.20;99.90;;;;;;4917859;29;20237;-58
2023/04/10 03:53:52;;;;;;;32.93;23.57;;;7.20;99.90;;;;;;4917883;29;20280;-59
2023/04/10 03:56:21;;;;;;;31.10;22.77;;;7.20;99.90;;;;;;4919024;29;20295;-59
2023/04/10 03:58:49;;;;;;;32.67;22.43;;;7.20;99.90;;;;;;4918832;29;20221;-59
2023/04/10 04:01:17;;;;;;;35.77;24.47;;;7.20;99.90;;;;;;4917411;29;20243;-59
2023/04/10 04:03:58;;;;;;;31.77;22.73;;;7.20;99.90;;;;;;4917148;29;20240;-59
2023/04/10 04:07:03;;;;;;;32.87;22.20;;;7.20;99.90;;;;;;4897658;29;20237;-59
2023/04/10 04:09:51;;;;;;;31.80;22.20;;;7.20;99.90;;;;;;4914874;29;20236;-58
2023/04/10 04:12:30;;;;;;;30.90;22.87;;;7.10;99.90;;;;;;4921121;29;20239;-59
2023/04/10 04:15:02;;;;;;;32.90;23.10;;;7.10;99.90;;;;;;4917734;29;20229;-59
2023/04/10 04:17:45;;;;;;;31.73;23.37;;;7.10;99.90;;;;;;4917251;29;20236;-59
2023/04/10 04:20:32;;;;;;;29.50;22.50;;;7.10;99.90;;;;;;4918824;29;20236;-59
2023/04/10 04:23:35;;;;;;;31.63;23.07;;;7.10;99.90;;;;;;4897542;29;20233;-59
2023/04/10 04:26:23;;;;;;;33.97;23.30;;;7.10;99.90;;;;;;4917039;29;20311;-59
2023/04/10 04:29:10;;;;;;;31.27;22.93;;;7.10;99.90;;;;;;4918884;29;20276;-59
2023/04/10 04:31:52;;;;;;;32.73;23.27;;;7.10;99.90;;;;;;4916899;29;20708;-59
2023/04/10 04:34:37;;;;;;;30.97;22.70;;;7.10;99.90;;;;;;4916674;29;20263;-59
2023/04/10 04:37:20;;;;;;;35.57;23.87;;;7.10;99.90;;;;;;4910615;29;20656;-59
2023/04/10 04:40:20;;;;;;;32.63;22.70;;;7.10;99.90;;;;;;4886290;29;20283;-59
2023/04/10 04:43:05;;;;;;;31.97;23.40;;;7.00;99.90;;;;;;4916686;29;20727;-59
2023/04/10 04:45:56;;;;;;;33.27;23.53;;;7.00;99.90;;;;;;4904147;29;20237;-59
2023/04/10 04:48:43;;;;;;;32.50;22.37;;;7.10;99.90;;;;;;4917963;29;20816;-59
2023/04/10 04:51:20;;;;;;;30.47;22.60;;;7.10;99.90;;;;;;4916793;29;20237;-59
2023/04/10 04:54:01;;;;;;;31.30;22.57;;;7.10;99.90;;;;;;4916799;29;20227;-59
2023/04/10 04:56:41;;;;;;;30.10;21.60;;;7.10;99.90;;;;;;4918008;29;20240;-59
2023/04/10 04:59:29;;;;;;;31.40;23.00;;;7.10;99.90;;;;;;4917784;29;20244;-59
2023/04/10 05:02:18;;;;;;;32.97;23.47;;;7.10;99.90;;;;;;4910228;29;20292;-59
2023/04/10 05:05:15;;;;;;;30.90;22.20;;;7.10;99.90;;;;;;4894095;29;20250;-59
2023/04/10 05:07:54;;;;;;;32.80;22.77;;;7.10;99.90;;;;;;4927736;29;20228;-59
2023/04/10 05:10:35;;;;;;;31.57;22.00;;;7.20;99.90;;;;;;4897379;29;20243;-59
2023/04/10 05:13:07;;;;;;;31.13;22.10;;;7.20;99.90;;;;;;4903129;29;20229;-59
2023/04/10 05:15:49;;;;;;;28.37;21.57;;;7.20;99.90;;;;;;4915933;29;20236;-59
2023/04/10 05:18:36;;;;;;;32.67;22.20;;;7.30;99.90;;;;;;4917426;29;20235;-59
2023/04/10 05:21:14;;;;;;;28.93;20.93;;;7.40;99.90;;;;;;4917391;29;20307;-59
2023/04/10 05:24:18;;;;;;;32.63;22.80;;;7.40;99.90;;;;;;4896396;29;20828;-59
2023/04/10 05:27:28;;;;;;;30.50;21.73;;;7.50;99.90;;;;;;4906889;29;20231;-59
2023/04/10 05:30:09;;;;;;;29.03;21.77;;;7.60;99.90;;;;;;4917283;29;20707;-59
2023/04/10 05:33:09;;;;;;;31.23;22.10;;;7.60;99.90;;;;;;4931500;29;20249;-59
2023/04/10 05:35:56;;;;;;;28.87;22.07;;;7.70;99.90;;;;;;4916318;29;20345;-59
2023/04/10 05:38:38;;;;;;;29.50;21.93;;;7.70;99.90;;;;;;4915546;29;20225;-60
2023/04/10 05:41:26;;;;;;;29.43;21.40;;;7.70;99.90;;;;;;4914600;29;20243;-59
2023/04/10 05:44:23;;;;;;;26.60;20.77;;;7.80;99.90;;;;;;4910090;29;20712;-59
2023/04/10 05:47:07;;;;;;;29.03;20.73;;;7.80;99.90;;;;;;4931142;29;20244;-59
2023/04/10 05:50:06;;;;;;;28.70;20.50;;;7.90;99.90;;;;;;4912253;29;20244;-59
2023/04/10 05:52:50;;;;;;;31.00;22.23;;;8.00;99.90;;;;;;4915686;29;20267;-59
2023/04/10 05:55:41;;;;;;;26.57;20.47;;;8.00;99.90;;;;;;4913175;29;20607;-59
2023/04/10 05:58:41;;;;;;;29.27;21.97;;;8.10;99.90;;;;;;4915286;29;20235;-59
2023/04/10 06:01:13;;;;;;;29.50;21.60;;;8.20;99.90;;;;;;4916304;29;20233;-58
2023/04/10 06:03:50;;;;;;;29.60;21.30;;;8.20;99.90;;;;;;4914966;29;20335;-59
2023/04/10 06:06:24;;;;;;;29.00;22.03;;;8.30;99.90;;;;;;4915309;29;20289;-59
2023/04/10 06:08:52;;;;;;;26.70;21.50;;;8.40;99.90;;;;;;4899112;29;20229;-59
2023/04/10 06:11:21;;;;;;;29.27;21.53;;;8.50;99.90;;;;;;4897902;29;20723;-59
2023/04/10 06:13:53;;;;;;;27.13;21.57;;;8.50;99.90;;;;;;4896408;29;20229;-59
2023/04/10 06:16:27;;;;;;;27.37;21.00;;;8.60;99.90;;;;;;4896342;29;20263;-59
2023/04/10 06:18:55;;;;;;;26.13;19.97;;;8.70;99.90;;;;;;4896435;29;20229;-59
2023/04/10 06:21:24;;;;;;;27.00;20.07;;;8.80;99.90;;;;;;4897743;29;20766;-59
2023/04/10 06:23:53;;;;;;;27.43;20.37;;;8.90;99.90;;;;;;4897558;29;20226;-58
2023/04/10 06:26:21;;;;;;;25.20;20.30;;;9.10;99.90;;;;;;4901595;29;20228;-59
2023/04/10 06:28:49;;;;;;;26.43;20.50;;;9.30;99.90;;;;;;4914311;29;20325;-59
2023/04/10 06:31:21;;;;;;;24.67;20.37;;;9.50;99.90;;;;;;4914526;29;20241;-59
2023/04/10 06:33:50;;;;;;;27.37;20.23;;;9.50;99.90;;;;;;4930263;29;20689;-59
2023/04/10 06:36:18;;;;;;;26.37;20.87;;;9.50;99.90;;;;;;4911630;29;20233;-59
2023/04/10 06:38:58;;;;;;;26.70;20.63;;;9.50;99.90;;;;;;4906206;29;20625;-59
2023/04/10 06:41:26;;;;;;;25.87;20.87;;;9.50;99.90;;;;;;4914657;29;20692;-59
2023/04/10 06:43:56;;;;;;;25.17;19.97;;;9.50;99.90;;;;;;4914791;29;20225;-59
2023/04/10 06:46:24;;;;;;;24.97;20.23;;;9.70;99.90;;;;;;4916027;29;20640;-59
2023/04/10 06:48:52;;;;;;;26.30;20.57;;;9.80;99.90;;;;;;4916458;29;20322;-59
2023/04/10 06:51:20;;;;;;;25.00;20.17;;;9.90;99.90;;;;;;4914794;29;20606;-58
2023/04/10 06:53:49;;;;;;;25.73;19.97;;;9.80;99.90;;;;;;4905897;29;20242;-59
2023/04/10 06:56:18;;;;;;;26.07;19.97;;;9.90;99.90;;;;;;4907804;29;20602;-59
2023/04/10 06:58:46;;;;;;;24.37;19.87;;;10.10;99.90;;;;;;4907934;29;20250;-58
2023/04/10 07:01:16;;;;;;;26.00;20.17;;;10.30;99.90;;;;;;4908703;29;20257;-58
2023/04/10 07:03:44;;;;;;;23.73;19.73;;;10.50;99.90;;;;;;4907558;29;20251;-59
2023/04/10 07:06:13;;;;;;;24.13;19.77;;;10.80;99.90;;;;;;4908288;29;20238;-58
2023/04/10 07:08:41;;;;;;;25.80;19.50;;;11.00;99.90;;;;;;4907149;29;20650;-58
2023/04/10 07:11:09;;;;;;;23.47;18.77;;;11.10;99.90;;;;;;4906787;29;20248;-59
2023/04/10 07:13:38;;;;;;;23.77;19.07;;;11.40;99.90;;;;;;4905417;29;20234;-59
2023/04/10 07:16:08;;;;;;;25.73;19.93;;;11.60;99.90;;;;;;4906789;29;20309;-58
2023/04/10 07:18:37;;;;;;;22.83;19.17;;;11.70;99.90;;;;;;4906488;29;20321;-60
2023/04/10 07:21:11;;;;;;;24.90;19.07;;;11.90;99.90;;;;;;4906730;29;20260;-58
2023/04/10 07:23:39;;;;;;;21.60;17.93;;;12.20;99.90;;;;;;4904947;29;20613;-59
2023/04/10 07:26:07;;;;;;;22.17;18.03;;;12.40;99.90;;;;;;4907391;29;20231;-58
2023/04/10 07:28:37;;;;;;;23.13;18.80;;;12.50;99.90;;;;;;4906016;29;20236;-59
2023/04/10 07:31:07;;;;;;;22.33;18.33;;;12.60;99.90;;;;;;4905667;29;20711;-59
2023/04/10 07:33:36;;;;;;;20.83;17.00;;;12.80;99.90;;;;;;4904175;29;20227;-59
2023/04/10 07:36:04;;;;;;;19.37;16.67;;;13.00;99.90;;;;;;4906101;29;20250;-59
2023/04/10 07:38:33;;;;;;;20.27;17.03;;;13.00;99.90;;;;;;4905876;29;20250;-58
2023/04/10 07:41:01;;;;;;;21.23;17.90;;;13.10;99.90;;;;;;4905952;29;20250;-58
2023/04/10 07:43:29;;;;;;;21.67;17.63;;;13.30;99.90;;;;;;4904744;29;20245;-58
2023/04/10 07:45:58;;;;;;;20.53;17.33;;;13.40;99.90;;;;;;4906191;29;20248;-58
2023/04/10 07:48:27;;;;;;;18.83;16.63;;;13.40;99.90;;;;;;4906461;29;20243;-59
2023/04/10 07:50:56;;;;;;;19.97;17.63;;;13.60;99.90;;;;;;4907110;29;21334;-59
2023/04/10 07:53:24;;;;;;;20.10;17.30;;;13.60;99.90;;;;;;4904989;29;20244;-58
2023/04/10 07:55:52;;;;;;;19.40;16.47;;;13.70;99.90;;;;;;4906973;29;20248;-58
2023/04/10 07:58:20;;;;;;;18.80;16.47;;;13.80;99.90;;;;;;4906661;29;20278;-58
2023/04/10 08:00:48;;;;;;;19.93;16.30;;;13.90;99.90;;;;;;4906173;29;20251;-59
2023/04/10 08:03:16;;;;;;;21.13;15.93;;;14.10;99.90;;;;;;4868157;29;1091921;-59
2023/04/10 08:05:46;;;;;;;20.53;17.47;;;14.20;99.90;;;;;;4907109;29;20236;-59
2023/04/10 08:08:15;;;;;;;21.67;16.97;;;14.40;99.90;;;;;;4906854;29;20280;-59
2023/04/10 08:10:43;;;;;;;19.17;16.77;;;14.40;99.90;;;;;;4907083;29;20577;-59
2023/04/10 08:13:11;;;;;;;18.53;16.53;;;14.60;99.90;;;;;;4906353;29;21340;-59
2023/04/10 08:15:39;;;;;;;18.10;15.60;;;14.80;99.90;;;;;;4907453;29;20585;-59
2023/04/10 08:18:07;;;;;;;18.10;16.07;;;14.90;99.90;;;;;;4907299;29;20232;-59
2023/04/10 08:20:35;;;;;;;18.57;16.47;;;14.70;99.90;;;;;;4907303;29;20817;-59
2023/04/10 08:23:05;;;;;;;18.37;16.43;;;14.80;99.90;;;;;;4905016;29;20233;-59
2023/04/10 08:25:39;;;;;;;18.07;15.87;;;15.10;99.90;;;;;;4907039;29;20228;-59
2023/04/10 08:28:07;;;;;;;17.20;15.33;;;15.30;99.90;;;;;;4907202;29;20228;-60
2023/04/10 08:30:35;;;;;;;16.63;14.83;;;15.40;99.90;;;;;;4906453;29;20584;-59
2023/04/10 08:33:05;;;;;;;16.80;14.97;;;15.70;99.90;;;;;;4904830;29;20224;-58
2023/04/10 08:35:33;;;;;;;17.93;14.07;;;15.80;99.90;;;;;;4907020;29;20241;-59
2023/04/10 08:38:01;;;;;;;16.77;14.87;;;15.90;99.90;;;;;;4907071;29;20603;-58
2023/04/10 08:40:43;;;;;;;17.10;15.27;;;16.00;99.90;;;;;;4906662;29;20244;-58
2023/04/10 08:43:11;;;;;;;16.07;14.37;;;16.10;99.90;;;;;;4905255;29;20633;-60
2023/04/10 08:45:41;;;;;;;15.37;13.50;;;16.30;99.90;;;;;;4906937;29;20759;-59
2023/04/10 08:48:11;;;;;;;16.20;14.50;;;16.50;99.90;;;;;;4907215;29;20649;-59
2023/04/10 08:50:43;;;;;;;15.97;14.17;;;16.70;99.90;;;;;;4906459;29;20244;-59
2023/04/10 08:53:13;;;;;;;15.97;14.03;;;16.70;99.90;;;;;;4905253;29;20243;-59
2023/04/10 08:55:45;;;;;;;14.90;13.40;;;16.80;99.90;;;;;;4906036;29;20237;-59
2023/04/10 08:58:13;;;;;;;15.53;13.30;;;17.00;99.90;;;;;;4906635;29;20225;-60
2023/04/10 09:00:41;;;;;;;15.00;13.40;;;17.00;99.90;;;;;;4905902;29;20251;-58
2023/04/10 09:03:12;;;;;;;14.03;12.53;;;17.00;99.90;;;;;;4903746;29;20248;-59
2023/04/10 09:05:41;;;;;;;13.77;12.33;;;17.50;99.90;;;;;;4906379;29;20239;-59
2023/04/10 09:08:09;;;;;;;14.90;13.40;;;17.80;99.90;;;;;;4906452;29;20598;-59
2023/04/10 09:10:38;;;;;;;14.20;12.20;;;18.00;99.90;;;;;;4904459;29;20589;-58
2023/04/10 09:13:07;;;;;;;13.93;12.33;;;18.10;99.90;;;;;;4901880;29;20240;-59
2023/04/10 09:15:57;;;;;;;15.10;12.17;;;18.00;99.90;;;;;;4903993;29;20309;-58
2023/04/10 09:18:44;;;;;;;14.67;12.30;;;17.60;99.90;;;;;;4903580;29;20645;-59
2023/04/10 09:21:15;;;;;;;13.13;11.83;;;17.30;99.90;;;;;;4904203;29;20234;-58
2023/04/10 09:23:45;;;;;;;12.50;11.20;;;17.30;99.90;;;;;;4900515;29;20760;-59
2023/04/10 09:26:27;;;;;;;12.23;11.03;;;17.30;99.90;;;;;;4903465;29;20237;-59
2023/04/10 09:29:01;;;;;;;12.37;11.17;;;17.50;99.90;;;;;;4903814;29;20234;-59
2023/04/10 09:31:31;;;;;;;12.30;11.00;;;17.70;99.90;;;;;;4901835;29;20254;-58
2023/04/10 09:34:12;;;;;;;12.80;11.50;;;18.00;99.90;;;;;;4903073;29;20702;-58
2023/04/10 09:36:41;;;;;;;12.73;11.43;;;18.20;99.90;;;;;;4903418;29;20737;-59
2023/04/10 09:39:11;;;;;;;13.13;11.83;;;18.30;99.90;;;;;;4904097;29;20243;-59
2023/04/10 09:41:50;;;;;;;13.00;11.70;;;18.50;99.90;;;;;;4900657;29;20239;-59
2023/04/10 09:44:29;;;;;;;12.77;11.50;;;18.40;99.90;;;;;;4902646;29;20242;-58
2023/04/10 09:46:57;;;;;;;13.13;11.83;;;18.30;99.90;;;;;;4902836;29;20248;-58
2023/04/10 09:49:26;;;;;;;12.80;11.57;;;18.40;99.90;;;;;;4904019;29;20572;-59
2023/04/10 09:51:54;;;;;;;11.93;10.73;;;18.70;99.90;;;;;;4900519;29;21250;-58
2023/04/10 09:54:36;;;;;;;11.73;10.57;;;18.50;99.90;;;;;;4904797;29;20239;-58
2023/04/10 09:57:06;;;;;;;12.67;11.37;;;18.70;99.90;;;;;;4906047;29;20231;-58
2023/04/10 09:59:39;;;;;;;12.87;11.50;;;18.80;99.90;;;;;;4903915;29;20243;-58
2023/04/10 10:02:10;;;;;;;11.63;10.53;;;18.80;99.90;;;;;;4900154;29;20647;-58
2023/04/10 10:04:40;;;;;;;12.03;10.50;;;18.90;99.90;;;;;;4903493;29;20651;-59
2023/04/10 10:07:08;;;;;;;10.90;9.83;;;19.30;99.90;;;;;;4902950;29;20242;-58
2023/04/10 10:09:37;;;;;;;12.50;9.83;;;19.20;99.90;;;;;;4904868;29;20247;-58
2023/04/10 10:12:07;;;;;;;10.67;9.57;;;19.30;99.90;;;;;;4899937;29;20860;-58
2023/04/10 10:14:42;;;;;;;11.30;10.23;;;19.00;99.90;;;;;;4902961;29;20243;-59
2023/04/10 10:17:12;;;;;;;10.67;9.63;;;18.70;99.90;;;;;;4903575;29;20223;-59
2023/04/10 10:19:46;;;;;;;11.47;10.37;;;18.50;99.90;;;;;;4903154;29;20240;-58
2023/04/10 10:22:15;;;;;;;10.40;9.40;;;18.20;99.90;;;;;;4903123;29;20254;-60
2023/04/10 10:24:47;;;;;;;10.10;9.20;;;18.20;99.90;;;;;;4904688;29;20248;-58
2023/04/10 10:27:17;;;;;;;10.73;9.73;;;18.00;99.90;;;;;;4905408;29;20255;-58
2023/04/10 10:29:49;;;;;;;10.80;9.70;;;18.10;99.90;;;;;;4904159;29;20247;-58
2023/04/10 10:32:18;;;;;;;10.17;9.17;;;18.20;99.90;;;;;;4900908;29;20614;-59
2023/04/10 10:34:47;;;;;;;10.53;9.53;;;18.30;99.90;;;;;;4901744;29;20266;-59
2023/04/10 10:37:15;;;;;;;9.33;8.43;;;18.50;99.90;;;;;;4902474;29;20242;-58
2023/04/10 10:39:49;;;;;;;9.10;8.20;;;18.80;99.90;;;;;;4902728;29;20239;-58
2023/04/10 10:42:26;;;;;;;9.33;8.43;;;19.00;99.90;;;;;;4899152;29;20238;-59
2023/04/10 10:45:06;;;;;;;9.60;8.60;;;18.90;99.90;;;;;;4902135;29;20235;-59
2023/04/10 10:47:40;;;;;;;8.93;8.03;;;19.10;99.90;;;;;;4902267;29;20732;-57
2023/04/10 10:50:09;;;;;;;10.03;9.03;;;18.90;99.90;;;;;;4902486;29;20235;-59
2023/04/10 10:52:42;;;;;;;9.50;8.57;;;19.00;99.90;;;;;;4898875;29;20231;-58
2023/04/10 10:55:34;;;;;;;9.33;8.43;;;19.00;99.90;;;;;;4902747;29;20228;-58
2023/04/10 10:58:04;;;;;;;9.00;8.10;;;19.00;99.90;;;;;;4902844;29;20284;-59
2023/04/10 11:01:06;;;;;;;9.13;8.23;;;19.20;99.90;;;;;;4902295;29;20766;-57
2023/04/10 11:03:37;;;;;;;9.20;8.30;;;19.50;99.90;;;;;;4897780;29;20341;-58
2023/04/10 11:06:08;;;;;;;9.23;8.00;;;19.50;99.60;;;;;;4902459;29;20236;-58
2023/04/10 11:08:55;;;;;;;9.07;8.27;;;19.50;99.90;;;;;;4904025;29;20296;-57
2023/04/10 11:11:26;;;;;;;9.40;8.33;;;19.50;99.30;;;;;;4902233;29;20254;-58
2023/04/10 11:14:24;;;;;;;8.73;7.93;;;19.80;99.50;;;;;;4900712;29;20239;-58
2023/04/10 11:16:54;;;;;;;9.27;8.37;;;20.00;97.80;;;;;;4902137;29;20330;-59
2023/04/10 11:19:24;;;;;;;8.83;7.93;;;19.60;98.90;;;;;;4910530;29;20704;-58
2023/04/10 11:22:07;;;;;;;9.00;8.10;;;19.60;99.30;;;;;;4907206;29;20656;-58
2023/04/10 11:24:59;;;;;;;9.63;8.63;;;19.50;98.80;;;;;;4904750;29;20250;-59
2023/04/10 11:27:45;;;;;;;8.07;7.33;;;19.70;98.80;;;;;;4905568;29;20216;-59
2023/04/10 11:30:30;;;;;;;8.27;7.47;;;20.00;98.60;;;;;;4904968;29;20805;-58
2023/04/10 11:33:00;;;;;;;8.70;8.00;;;19.90;97.70;;;;;;4904968;29;20819;-58
2023/04/10 11:35:30;;;;;;;8.73;7.57;;;19.80;96.90;;;;;;4906451;29;21043;-57
2023/04/10 11:38:18;;;;;;;8.90;8.00;;;19.60;96.70;;;;;;4920554;29;20217;-59
2023/04/10 11:41:04;;;;;;;9.47;6.67;;;19.50;97.40;;;;;;4905750;29;20215;-58
2023/04/10 11:43:34;;;;;;;8.53;6.83;;;19.30;97.10;;;;;;4908856;29;20698;-58
2023/04/10 11:46:04;;;;;;;7.73;7.00;;;19.40;97.50;;;;;;4908820;29;20786;-57
2023/04/10 11:48:34;;;;;;;8.97;7.97;;;19.40;97.70;;;;;;4908061;29;20236;-58
2023/04/10 11:51:13;;;;;;;8.43;7.63;;;19.30;97.40;;;;;;4909282;29;20252;-57
2023/04/10 11:53:42;;;;;;;8.20;7.40;;;19.00;97.10;;;;;;4909079;29;20576;-57
2023/04/10 11:56:18;;;;;;;8.00;7.27;;;18.90;97.20;;;;;;4909499;29;20224;-59
2023/04/10 11:58:47;;;;;;;8.20;7.50;;;18.90;97.10;;;;;;4907431;29;20221;-59
2023/04/10 12:01:15;;;;;;;8.50;7.57;;;18.70;97.20;;;;;;4909514;29;20718;-58
2023/04/10 12:03:45;;;;;;;8.07;6.93;;;18.60;97.60;;;;;;4908813;29;20266;-58
2023/04/10 12:06:15;;;;;;;7.23;6.53;;;18.70;98.70;;;;;;4909451;29;20742;-58
2023/04/10 12:08:46;;;;;;;7.50;6.80;;;18.90;98.50;;;;;;4906648;29;20956;-58
2023/04/10 12:11:17;;;;;;;6.90;6.30;;;19.00;98.10;;;;;;4909215;29;20252;-57
2023/04/10 12:13:45;;;;;;;8.57;7.03;;;19.00;97.40;;;;;;4909283;29;20362;-58
2023/04/10 12:16:14;;;;;;;8.23;6.90;;;19.10;97.80;;;;;;4909058;29;20223;-58
2023/04/10 12:18:44;;;;;;;6.57;5.97;;;19.10;97.00;;;;;;4907802;29;20865;-58
2023/04/10 12:21:12;;;;;;;7.17;6.10;;;19.20;96.50;;;;;;4909548;29;20554;-58
2023/04/10 12:23:41;;;;;;;7.07;6.37;;;19.20;96.50;;;;;;4909260;29;20238;-58
2023/04/10 12:26:12;;;;;;;6.40;5.80;;;19.20;96.90;;;;;;4908705;29;20215;-59
2023/04/10 12:28:42;;;;;;;6.50;5.90;;;19.10;96.50;;;;;;4907531;29;20228;-58
2023/04/10 12:31:10;;;;;;;6.80;6.10;;;19.10;96.60;;;;;;4908710;29;20218;-58
2023/04/10 12:33:39;;;;;;;6.00;5.50;;;19.00;95.40;;;;;;4908831;29;20291;-58
2023/04/10 12:36:20;;;;;;;5.80;5.30;;;18.90;95.90;;;;;;4908881;29;20207;-59
2023/04/10 12:38:49;;;;;;;5.53;4.97;;;18.80;95.00;;;;;;4906856;29;20307;-57
2023/04/10 12:41:22;;;;;;;7.27;5.10;;;18.70;95.40;;;;;;4908607;29;20216;-59
2023/04/10 12:43:52;;;;;;;5.57;4.97;;;18.40;95.30;;;;;;4907036;29;20220;-59
2023/04/10 12:46:25;;;;;;;5.10;4.60;;;18.40;95.40;;;;;;4908496;29;20687;-59
2023/04/10 12:48:53;;;;;;;5.90;5.30;;;18.20;94.10;;;;;;4906723;29;20231;-59
2023/04/10 12:51:47;;;;;;;5.77;5.17;;;18.40;94.50;;;;;;4907495;29;20929;-58
2023/04/10 12:54:30;;;;;;;6.27;4.60;;;18.30;94.30;;;;;;4907637;29;20242;-59
2023/04/10 12:56:59;;;;;;;5.87;5.30;;;18.40;95.00;;;;;;4908086;29;20247;-59
2023/04/10 12:59:27;;;;;;;6.07;4.97;;;18.50;95.60;;;;;;4909552;29;20232;-58
2023/04/10 13:01:56;;;;;;;5.63;5.13;;;18.40;95.20;;;;;;4916527;29;20323;-59
2023/04/10 13:04:25;;;;;;;6.20;5.60;;;18.50;95.60;;;;;;4917578;29;20231;-58
2023/04/10 13:06:55;;;;;;;6.30;5.70;;;18.30;95.40;;;;;;4917514;29;20242;-61
2023/04/10 13:09:23;;;;;;;6.63;5.73;;;18.10;95.90;;;;;;4916276;29;20277;-63